Time;durP1;ratioP1;P1;durP2;ratioP2;P2;SDS_P1;SDS_P2;PMS_P1;PMS_P2;Temp;Humidity;BMP_temperature;BMP_pressure;BME280_temperature;BME280_humidity;BME280_pressure;Samples;Min_cycle;Max_cycle;Signal;HPM_P1;HPM_P2
2023/04/26 00:00:18;;;;;;;6.18;4.28;;;;;;;13.14;64.71;98556.03;5077371;28;20119;-61
2023/04/26 00:02:45;;;;;;;6.32;4.43;;;;;;;13.06;65.15;98549.69;5094431;28;20107;-62
2023/04/26 00:05:10;;;;;;;5.70;3.45;;;;;;;13.06;65.77;98554.19;5093151;28;20553;-60
2023/04/26 00:07:39;;;;;;;6.70;4.10;;;;;;;13.04;65.92;98546.31;5094276;28;20032;-62
2023/04/26 00:10:05;;;;;;;6.35;5.07;;;;;;;13.04;66.07;98540.97;5076408;28;20336;-62
2023/04/26 00:12:31;;;;;;;9.38;4.57;;;;;;;13.00;65.98;98528.84;5094110;28;20024;-60
2023/04/26 00:14:57;;;;;;;6.63;4.88;;;;;;;12.96;66.11;98532.91;5093476;28;20028;-61
2023/04/26 00:17:23;;;;;;;7.18;5.28;;;;;;;12.94;66.23;98542.16;5094256;28;20101;-57
2023/04/26 00:19:49;;;;;;;7.88;4.47;;;;;;;12.92;65.96;98531.56;5075436;28;20020;-61
2023/04/26 00:22:16;;;;;;;5.53;4.30;;;;;;;12.86;66.02;98527.72;5093815;28;20645;-63
2023/04/26 00:24:42;;;;;;;8.48;5.25;;;;;;;12.87;66.37;98526.69;5075549;28;20024;-61
2023/04/26 00:27:09;;;;;;;9.55;4.78;;;;;;;12.88;66.51;98538.28;5093279;28;20039;-60
2023/04/26 00:29:36;;;;;;;6.20;4.45;;;;;;;12.85;66.59;98519.84;5093786;28;20351;-61
2023/04/26 00:32:02;;;;;;;5.07;4.22;;;;;;;12.85;66.63;98525.22;5093761;28;20024;-62
2023/04/26 00:34:33;;;;;;;6.22;4.13;;;;;;;12.82;66.91;98525.56;5076101;28;20031;-60
2023/04/26 00:36:58;;;;;;;6.28;4.05;;;;;;;12.74;66.61;98521.03;5093068;28;20032;-61
2023/04/26 00:39:24;;;;;;;5.07;4.30;;;;;;;12.70;66.94;98528.56;5093449;28;20044;-61
2023/04/26 00:41:50;;;;;;;5.88;4.40;;;;;;;12.71;67.05;98516.00;5093900;28;20036;-61
2023/04/26 00:44:15;;;;;;;5.35;4.32;;;;;;;12.68;67.06;98506.44;5093030;28;20032;-60
2023/04/26 00:46:41;;;;;;;7.20;4.55;;;;;;;12.70;67.14;98507.09;5093158;28;20028;-61
2023/04/26 00:49:06;;;;;;;6.25;5.65;;;;;;;12.69;67.63;98499.22;5092867;28;20032;-60
2023/04/26 00:51:32;;;;;;;5.55;4.53;;;;;;;12.66;67.30;98500.38;5093462;28;20039;-61
2023/04/26 00:53:58;;;;;;;8.85;5.25;;;;;;;12.60;67.48;98499.22;5093394;28;20316;-61
2023/04/26 00:56:25;;;;;;;6.70;4.90;;;;;;;12.58;67.85;98498.53;5093264;28;20469;-60
2023/04/26 00:58:50;;;;;;;5.90;4.85;;;;;;;12.56;67.97;98492.50;5093694;28;20114;-61
2023/04/26 01:01:16;;;;;;;7.05;4.90;;;;;;;12.56;67.76;98491.69;5093318;28;20120;-62
2023/04/26 01:03:44;;;;;;;8.02;4.97;;;;;;;12.53;67.82;98481.25;5093129;28;20020;-61
2023/04/26 01:06:10;;;;;;;10.52;5.53;;;;;;;12.50;68.14;98485.16;5092704;28;20421;-60
2023/04/26 01:08:36;;;;;;;6.60;5.13;;;;;;;12.47;68.30;98480.94;5092782;28;20127;-60
2023/04/26 01:11:01;;;;;;;9.30;5.15;;;;;;;12.49;68.46;98472.72;5092948;28;20123;-59
2023/04/26 01:13:28;;;;;;;5.03;4.53;;;;;;;12.54;68.59;98480.25;5093138;28;20032;-61
2023/04/26 01:15:55;;;;;;;7.47;4.82;;;;;;;12.56;68.27;98470.22;5093289;28;20028;-61
2023/04/26 01:18:20;;;;;;;7.63;5.35;;;;;;;12.60;68.39;98464.31;5074758;28;20046;-61
2023/04/26 01:20:47;;;;;;;7.10;4.47;;;;;;;12.61;68.24;98459.78;5092776;28;20433;-61
2023/04/26 01:23:12;;;;;;;8.55;4.55;;;;;;;12.65;68.37;98461.13;5058401;28;20363;-61
2023/04/26 01:25:38;;;;;;;5.80;5.00;;;;;;;12.70;68.42;98456.06;5092511;28;20039;-62
2023/04/26 01:28:03;;;;;;;7.35;5.50;;;;;;;12.68;68.65;98455.41;5092932;28;20036;-59
2023/04/26 01:30:29;;;;;;;8.52;5.10;;;;;;;12.65;68.44;98455.75;5092304;28;20027;-60
2023/04/26 01:32:55;;;;;;;6.88;5.25;;;;;;;12.63;68.59;98447.03;5093268;28;20028;-60
2023/04/26 01:35:20;;;;;;;8.13;5.57;;;;;;;12.60;68.51;98447.38;5092316;28;20151;-61
2023/04/26 01:37:46;;;;;;;6.75;5.80;;;;;;;12.61;68.72;98438.31;5092661;28;20092;-61
2023/04/26 01:40:12;;;;;;;7.78;6.03;;;;;;;12.56;68.58;98432.63;5092441;28;20079;-61
2023/04/26 01:42:38;;;;;;;6.40;5.18;;;;;;;12.50;68.46;98409.97;5092768;28;20060;-60
2023/04/26 01:45:04;;;;;;;5.88;5.38;;;;;;;12.54;68.55;98418.50;5092045;28;20138;-62
2023/04/26 01:47:30;;;;;;;7.32;6.07;;;;;;;12.56;68.78;98422.72;5074998;28;20041;-63
2023/04/26 01:49:55;;;;;;;6.85;5.95;;;;;;;12.58;69.58;98423.38;5092691;28;20024;-62
2023/04/26 01:52:21;;;;;;;6.82;5.85;;;;;;;12.57;69.13;98420.88;5092590;28;20020;-61
2023/04/26 01:54:47;;;;;;;9.80;6.68;;;;;;;12.60;69.61;98421.34;5074968;28;20442;-60
2023/04/26 01:57:12;;;;;;;8.82;6.43;;;;;;;12.63;69.58;98417.50;5091652;28;20024;-62
2023/04/26 01:59:38;;;;;;;7.97;6.30;;;;;;;12.41;69.27;98384.16;5092095;28;20161;-61
2023/04/26 02:02:04;;;;;;;8.02;6.10;;;;;;;12.56;69.15;98414.66;5092603;28;20122;-61
2023/04/26 02:04:29;;;;;;;7.72;6.47;;;;;;;12.56;69.66;98413.84;5092580;28;20091;-60
2023/04/26 02:06:56;;;;;;;7.72;6.43;;;;;;;12.55;69.67;98404.09;5092506;28;20031;-62
2023/04/26 02:09:21;;;;;;;11.20;7.07;;;;;;;12.38;69.44;98371.06;5092076;28;20338;-61
2023/04/26 02:11:46;;;;;;;13.25;6.43;;;;;;;12.59;69.77;98402.75;5074671;28;20039;-61
2023/04/26 02:14:12;;;;;;;8.65;6.07;;;;;;;12.54;69.57;98403.25;5092299;28;20321;-61
2023/04/26 02:16:41;;;;;;;9.82;6.57;;;;;;;12.56;69.86;98401.22;5092260;28;20335;-62
2023/04/26 02:19:09;;;;;;;7.07;6.35;;;;;;;12.55;69.80;98396.06;5091719;28;20047;-60
2023/04/26 02:21:54;;;;;;;10.23;5.93;;;;;;;12.70;69.91;98398.84;5090430;28;20032;-59
2023/04/26 02:24:20;;;;;;;11.25;6.72;;;;;;;12.62;69.87;98388.97;5090974;28;20040;-61
2023/04/26 02:26:46;;;;;;;9.23;6.60;;;;;;;12.60;70.16;98383.75;5091847;28;20040;-61
2023/04/26 02:29:12;;;;;;;9.32;6.18;;;;;;;12.63;70.26;98388.78;5093367;28;20031;-61
2023/04/26 02:31:37;;;;;;;8.32;6.53;;;;;;;12.61;70.38;98385.44;5095907;28;20035;-63
2023/04/26 02:34:03;;;;;;;11.15;6.78;;;;;;;12.62;70.51;98391.66;5095943;28;20076;-62
2023/04/26 02:36:29;;;;;;;8.02;6.60;;;;;;;12.54;70.73;98380.94;5095689;28;20141;-62
2023/04/26 02:38:54;;;;;;;8.00;6.43;;;;;;;12.50;70.89;98377.75;5095184;28;20107;-60
2023/04/26 02:41:20;;;;;;;11.70;6.75;;;;;;;12.52;71.18;98383.81;5095856;28;20059;-60
2023/04/26 02:43:46;;;;;;;9.60;6.55;;;;;;;12.49;71.14;98374.22;5096091;28;20045;-59
2023/04/26 02:46:11;;;;;;;10.68;7.45;;;;;;;12.46;71.08;98369.22;5095428;28;20036;-61
2023/04/26 02:48:37;;;;;;;14.18;6.95;;;;;;;12.41;71.37;98368.91;5095941;28;20320;-61
2023/04/26 02:51:02;;;;;;;8.65;7.05;;;;;;;12.41;71.80;98370.72;5095654;28;20450;-60
2023/04/26 02:53:28;;;;;;;11.05;7.30;;;;;;;12.41;72.21;98370.72;5095810;28;20035;-60
2023/04/26 02:55:53;;;;;;;11.23;7.28;;;;;;;12.42;72.12;98359.84;5095166;28;20020;-61
2023/04/26 02:58:19;;;;;;;8.85;6.60;;;;;;;12.41;71.72;98366.22;5095359;28;20032;-62
2023/04/26 03:00:48;;;;;;;8.00;6.97;;;;;;;12.36;72.17;98368.56;5095398;28;20039;-61
2023/04/26 03:03:14;;;;;;;11.40;7.78;;;;;;;12.37;72.41;98367.56;5095736;28;20455;-62
2023/04/26 03:05:40;;;;;;;9.43;7.60;;;;;;;12.36;72.40;98365.91;5094644;28;20028;-62
2023/04/26 03:08:06;;;;;;;7.82;7.00;;;;;;;12.17;72.09;98341.09;5095344;28;20067;-62
2023/04/26 03:10:31;;;;;;;10.23;7.72;;;;;;;12.33;72.80;98360.88;5095791;28;20162;-61
2023/04/26 03:12:57;;;;;;;9.32;7.68;;;;;;;12.32;72.86;98357.34;5095387;28;20455;-60
2023/04/26 03:15:22;;;;;;;9.55;7.75;;;;;;;12.33;73.07;98352.81;5094467;28;20355;-60
2023/04/26 03:17:48;;;;;;;10.77;7.28;;;;;;;12.34;73.40;98351.81;5095345;28;20097;-60
2023/04/26 03:20:13;;;;;;;11.10;7.30;;;;;;;12.34;72.87;98349.94;5095294;28;20439;-60
2023/04/26 03:22:39;;;;;;;11.25;7.13;;;;;;;12.31;73.10;98339.56;5094897;28;20093;-62
2023/04/26 03:25:06;;;;;;;8.60;7.07;;;;;;;12.31;73.31;98339.56;5059986;28;20111;-61
2023/04/26 03:27:33;;;;;;;9.35;6.82;;;;;;;12.37;73.06;98348.78;5095274;28;20055;-57
2023/04/26 03:29:59;;;;;;;9.63;7.53;;;;;;;12.37;72.72;98339.88;5095110;28;20624;-60
2023/04/26 03:32:24;;;;;;;10.23;7.95;;;;;;;12.39;72.82;98343.22;5094754;28;20042;-61
2023/04/26 03:34:50;;;;;;;10.57;8.32;;;;;;;12.33;72.83;98332.19;5094379;28;20431;-60
2023/04/26 03:37:15;;;;;;;11.40;8.77;;;;;;;12.27;73.49;98313.22;5094631;28;20039;-59
2023/04/26 03:39:41;;;;;;;12.13;8.98;;;;;;;12.49;73.54;98330.47;5094557;28;20116;-59
2023/04/26 03:42:07;;;;;;;11.00;8.43;;;;;;;12.58;72.95;98340.16;5094637;28;20028;-61
2023/04/26 03:44:32;;;;;;;10.80;8.13;;;;;;;12.67;72.79;98334.75;5094718;28;20032;-62
2023/04/26 03:46:58;;;;;;;11.80;8.20;;;;;;;12.67;72.55;98330.22;5094288;28;20454;-61
2023/04/26 03:49:23;;;;;;;10.23;8.13;;;;;;;12.72;72.44;98327.84;5094626;28;20616;-61
2023/04/26 03:51:49;;;;;;;11.65;8.32;;;;;;;12.58;72.32;98297.19;5094527;28;20028;-62
2023/04/26 03:54:15;;;;;;;10.65;7.57;;;;;;;12.75;71.87;98330.16;5094271;28;20036;-61
2023/04/26 03:56:40;;;;;;;9.05;7.68;;;;;;;12.67;72.05;98322.16;5076340;28;20051;-61
2023/04/26 03:59:08;;;;;;;9.23;8.25;;;;;;;12.68;72.28;98321.16;5094609;28;20111;-61
2023/04/26 04:01:33;;;;;;;9.60;7.90;;;;;;;12.68;72.61;98315.78;5076749;28;20028;-61
2023/04/26 04:03:59;;;;;;;9.00;7.70;;;;;;;12.72;72.48;98330.53;5076292;28;20311;-62
2023/04/26 04:06:24;;;;;;;12.43;8.65;;;;;;;12.75;72.46;98327.47;5093702;28;20039;-61
2023/04/26 04:08:50;;;;;;;9.68;8.68;;;;;;;12.79;72.54;98314.56;5093970;28;20042;-61
2023/04/26 04:11:15;;;;;;;9.35;7.75;;;;;;;12.60;72.31;98288.97;5094242;28;20041;-61
2023/04/26 04:13:41;;;;;;;8.52;7.63;;;;;;;12.81;72.26;98314.38;5094088;28;20495;-62
2023/04/26 04:16:08;;;;;;;7.00;6.30;;;;;;;12.83;72.22;98318.56;5093804;28;20059;-62
2023/04/26 04:18:35;;;;;;;7.90;6.30;;;;;;;12.82;72.09;98321.44;5059951;28;20118;-62
2023/04/26 04:21:00;;;;;;;9.55;6.30;;;;;;;12.83;72.45;98325.78;5093895;28;20038;-62
2023/04/26 04:23:26;;;;;;;6.93;6.10;;;;;;;12.85;72.42;98315.72;5093583;28;20044;-62
2023/04/26 04:25:52;;;;;;;6.63;5.57;;;;;;;12.89;71.94;98317.03;5093280;28;20362;-61
2023/04/26 04:28:18;;;;;;;5.50;5.00;;;;;;;12.90;72.03;98321.38;5093604;28;20089;-62
2023/04/26 04:30:45;;;;;;;5.95;5.35;;;;;;;12.76;71.98;98286.19;5093673;28;20032;-61
2023/04/26 04:33:11;;;;;;;5.43;4.88;;;;;;;12.91;72.14;98304.25;5093087;28;20108;-62
2023/04/26 04:35:36;;;;;;;6.68;5.20;;;;;;;12.99;72.25;98311.44;5093490;28;20350;-61
2023/04/26 04:38:02;;;;;;;4.68;4.18;;;;;;;13.06;71.95;98315.94;5093509;28;20118;-62
2023/04/26 04:40:29;;;;;;;5.95;4.50;;;;;;;13.12;71.64;98317.03;5093091;28;20044;-62
2023/04/26 04:42:54;;;;;;;4.40;3.95;;;;;;;13.12;71.09;98305.47;5093493;28;20473;-61
2023/04/26 04:45:20;;;;;;;5.00;3.53;;;;;;;12.98;70.83;98288.25;5092781;28;20035;-61
2023/04/26 04:47:46;;;;;;;4.82;3.28;;;;;;;13.16;70.97;98312.16;5092461;28;20503;-61
2023/04/26 04:50:11;;;;;;;4.18;3.30;;;;;;;13.13;70.97;98299.91;5093342;28;20039;-61
2023/04/26 04:52:37;;;;;;;3.90;2.95;;;;;;;13.25;70.64;98310.25;5092645;28;20055;-61
2023/04/26 04:55:03;;;;;;;4.10;3.03;;;;;;;13.29;70.64;98316.94;5092951;28;20062;-60
2023/04/26 04:57:31;;;;;;;3.75;3.00;;;;;;;13.32;71.01;98304.00;5092949;28;20032;-61
2023/04/26 04:59:57;;;;;;;4.53;3.08;;;;;;;13.42;69.95;98308.28;5093339;28;20020;-62
2023/04/26 05:02:22;;;;;;;3.65;2.70;;;;;;;13.45;70.15;98306.13;5091910;28;20469;-60
2023/04/26 05:04:48;;;;;;;3.15;2.90;;;;;;;13.53;70.42;98310.59;5074765;28;20063;-62
2023/04/26 05:07:14;;;;;;;2.60;2.40;;;;;;;13.57;69.80;98302.97;5093176;28;20039;-60
2023/04/26 05:09:41;;;;;;;3.28;2.65;;;;;;;13.60;69.24;98298.09;5092832;28;20519;-59
2023/04/26 05:12:06;;;;;;;3.03;2.60;;;;;;;13.63;69.08;98308.47;5093042;28;20024;-61
2023/04/26 05:14:32;;;;;;;4.70;3.58;;;;;;;13.58;69.11;98301.97;5093111;28;20024;-61
2023/04/26 05:16:58;;;;;;;2.08;1.88;;;;;;;13.45;69.16;98276.53;5091810;28;20461;-62
2023/04/26 05:19:23;;;;;;;2.30;2.08;;;;;;;13.65;68.88;98302.94;5092359;28;20027;-56
2023/04/26 05:21:49;;;;;;;2.65;1.95;;;;;;;13.66;68.52;98298.38;5092768;28;20027;-62
2023/04/26 05:24:15;;;;;;;2.25;1.90;;;;;;;13.48;68.75;98270.78;5092647;28;20038;-62
2023/04/26 05:26:40;;;;;;;2.35;1.70;;;;;;;13.63;68.16;98292.34;5091976;28;20149;-61
2023/04/26 05:29:06;;;;;;;3.22;1.65;;;;;;;13.72;68.14;98300.31;5092512;28;20335;-62
2023/04/26 05:31:31;;;;;;;2.17;1.50;;;;;;;13.75;68.13;98306.19;5092270;28;20020;-62
2023/04/26 05:33:57;;;;;;;2.45;1.77;;;;;;;13.78;68.46;98299.63;5092310;28;20020;-61
2023/04/26 05:36:22;;;;;;;1.95;1.77;;;;;;;13.84;68.16;98301.56;5074368;28;20111;-62
2023/04/26 05:38:48;;;;;;;1.92;1.60;;;;;;;13.88;68.19;98310.94;5091984;28;20024;-63
2023/04/26 05:41:13;;;;;;;2.67;1.52;;;;;;;14.02;67.85;98300.41;5092412;28;20129;-63
2023/04/26 05:43:39;;;;;;;1.95;1.30;;;;;;;14.06;67.33;98290.94;5092452;28;20124;-62
2023/04/26 05:46:05;;;;;;;1.50;1.40;;;;;;;14.16;67.15;98296.88;5091521;28;20046;-62
2023/04/26 05:48:31;;;;;;;1.70;1.40;;;;;;;14.23;66.53;98305.06;5089353;28;20102;-62
2023/04/26 05:50:56;;;;;;;1.92;1.15;;;;;;;14.27;66.68;98297.44;5092041;28;20030;-63
2023/04/26 05:53:22;;;;;;;2.25;1.27;;;;;;;14.30;65.91;98292.50;5092425;28;20446;-61
2023/04/26 05:55:47;;;;;;;1.30;1.20;;;;;;;14.35;66.03;98302.72;5092006;28;20097;-62
2023/04/26 05:58:13;;;;;;;2.47;1.30;;;;;;;14.35;65.97;98300.88;5092030;28;20030;-60
2023/04/26 06:00:39;;;;;;;2.00;1.55;;;;;;;14.27;66.04;98305.53;5092591;28;20024;-61
2023/04/26 06:03:05;;;;;;;1.73;1.23;;;;;;;14.26;66.41;98296.59;5092370;28;20063;-63
2023/04/26 06:05:31;;;;;;;1.95;1.33;;;;;;;14.29;66.32;98307.00;5095724;28;20143;-62
2023/04/26 06:07:57;;;;;;;1.85;1.50;;;;;;;14.13;65.98;98275.72;5096557;28;20031;-61
2023/04/26 06:10:23;;;;;;;1.70;1.60;;;;;;;14.29;66.09;98308.88;5096404;28;20035;-61
2023/04/26 06:12:48;;;;;;;1.95;1.65;;;;;;;14.29;66.04;98307.00;5096674;28;20024;-61
2023/04/26 06:15:14;;;;;;;6.22;1.88;;;;;;;14.31;66.16;98309.50;5095753;28;20031;-63
2023/04/26 06:17:40;;;;;;;2.33;1.50;;;;;;;14.32;66.02;98311.19;5096400;28;20035;-61
2023/04/26 06:20:08;;;;;;;2.45;1.50;;;;;;;14.34;66.39;98314.53;5096127;28;20032;-62
2023/04/26 06:22:34;;;;;;;3.20;1.88;;;;;;;14.37;66.00;98308.75;5096036;28;20028;-62
2023/04/26 06:25:00;;;;;;;2.20;1.65;;;;;;;14.42;66.00;98310.91;5095569;28;20034;-62
2023/04/26 06:27:26;;;;;;;4.43;2.20;;;;;;;14.33;66.34;98307.47;5096066;28;20056;-62
2023/04/26 06:29:51;;;;;;;4.10;2.20;;;;;;;14.38;66.69;98309.63;5096038;28;20089;-62
2023/04/26 06:32:17;;;;;;;2.63;2.30;;;;;;;14.28;66.88;98302.63;5095453;28;20085;-62
2023/04/26 06:34:44;;;;;;;4.57;2.28;;;;;;;14.29;66.91;98315.06;5078380;28;20076;-63
2023/04/26 06:37:10;;;;;;;3.22;2.20;;;;;;;14.37;66.94;98321.41;5095765;28;20031;-63
2023/04/26 06:39:37;;;;;;;1.92;1.73;;;;;;;14.40;66.62;98319.16;5095885;28;20055;-59
2023/04/26 06:42:03;;;;;;;4.30;2.20;;;;;;;14.43;66.54;98324.16;5095736;28;20100;-62
2023/04/26 06:44:30;;;;;;;4.03;2.05;;;;;;;14.43;66.69;98326.84;5078257;28;20436;-63
2023/04/26 06:46:56;;;;;;;2.35;2.13;;;;;;;14.38;66.18;98315.81;5095021;28;20036;-62
2023/04/26 06:49:22;;;;;;;6.70;2.35;;;;;;;14.43;66.55;98326.84;5077689;28;20028;-62
2023/04/26 06:51:48;;;;;;;2.53;2.00;;;;;;;14.49;66.02;98328.84;5095713;28;20130;-62
2023/04/26 06:54:13;;;;;;;4.22;2.10;;;;;;;14.59;65.96;98328.56;5078208;28;20443;-63
2023/04/26 06:56:39;;;;;;;3.10;1.70;;;;;;;14.50;64.81;98335.88;5095230;28;20046;-61
2023/04/26 06:59:05;;;;;;;3.53;1.73;;;;;;;14.47;65.48;98333.56;5095615;28;20036;-63
2023/04/26 07:01:32;;;;;;;3.63;2.35;;;;;;;14.53;65.83;98328.44;5095734;28;20047;-61
2023/04/26 07:04:02;;;;;;;4.35;2.40;;;;;;;14.64;66.33;98338.75;5095368;28;20110;-63
2023/04/26 07:06:30;;;;;;;3.30;2.00;;;;;;;14.70;65.26;98339.84;5094609;28;20067;-62
2023/04/26 07:08:57;;;;;;;3.22;1.67;;;;;;;14.77;65.51;98333.56;5095480;28;20028;-62
2023/04/26 07:11:22;;;;;;;4.55;2.30;;;;;;;14.84;65.83;98324.72;5077650;28;20043;-62
2023/04/26 07:13:48;;;;;;;2.58;1.70;;;;;;;15.05;64.98;98342.78;5095201;28;20358;-63
2023/04/26 07:16:13;;;;;;;4.03;2.13;;;;;;;15.10;64.29;98334.16;5094803;28;20028;-62
2023/04/26 07:18:39;;;;;;;4.03;2.10;;;;;;;14.91;64.00;98315.72;5095174;28;20055;-62
2023/04/26 07:21:05;;;;;;;4.85;2.55;;;;;;;15.11;64.62;98346.59;5077495;28;20024;-62
2023/04/26 07:23:31;;;;;;;3.25;2.47;;;;;;;15.11;64.27;98347.44;5094914;28;20042;-62
2023/04/26 07:25:57;;;;;;;2.78;2.58;;;;;;;15.14;64.19;98347.06;5094966;28;20032;-63
2023/04/26 07:28:23;;;;;;;2.60;2.10;;;;;;;15.14;64.04;98347.06;5095272;28;20032;-62
2023/04/26 07:30:48;;;;;;;4.43;2.17;;;;;;;15.10;63.96;98345.78;5089277;28;20101;-59
2023/04/26 07:33:14;;;;;;;1.73;1.63;;;;;;;15.05;64.12;98353.56;5094559;28;20028;-60
2023/04/26 07:35:39;;;;;;;3.45;1.92;;;;;;;15.06;64.05;98350.69;5091717;28;20032;-61
2023/04/26 07:38:06;;;;;;;3.90;2.15;;;;;;;14.93;63.99;98337.06;5075391;28;20028;-61
2023/04/26 07:40:31;;;;;;;2.65;1.70;;;;;;;14.93;63.93;98355.91;5094048;28;20047;-60
2023/04/26 07:42:57;;;;;;;2.35;1.88;;;;;;;14.98;64.42;98361.59;5094354;28;20036;-61
2023/04/26 07:45:23;;;;;;;3.65;2.10;;;;;;;15.03;63.83;98351.09;5094115;28;20039;-59
2023/04/26 07:47:48;;;;;;;2.85;2.50;;;;;;;15.14;63.57;98362.38;5094440;28;20024;-61
2023/04/26 07:50:14;;;;;;;4.70;2.63;;;;;;;15.06;64.25;98333.69;5092364;28;20327;-57
2023/04/26 07:52:41;;;;;;;3.97;2.60;;;;;;;15.36;63.71;98360.59;5074114;28;20107;-62
2023/04/26 07:55:07;;;;;;;3.83;2.85;;;;;;;15.33;64.12;98344.78;5093793;28;20103;-62
2023/04/26 07:57:32;;;;;;;4.70;2.67;;;;;;;15.55;64.04;98369.91;5094015;28;20031;-62
2023/04/26 07:59:58;;;;;;;3.65;3.17;;;;;;;15.69;64.32;98370.03;5075898;28;20020;-62
2023/04/26 08:02:23;;;;;;;5.18;2.63;;;;;;;15.90;62.54;98356.53;5093473;28;20369;-62
2023/04/26 08:04:51;;;;;;;3.35;2.60;;;;;;;15.91;61.59;98369.03;5093709;28;20027;-62
2023/04/26 08:07:20;;;;;;;4.30;3.13;;;;;;;16.00;62.05;98379.69;5094182;28;20036;-61
2023/04/26 08:09:47;;;;;;;4.00;3.60;;;;;;;16.10;62.28;98369.38;5093971;28;20068;-63
2023/04/26 08:12:13;;;;;;;4.05;3.72;;;;;;;16.35;61.89;98374.31;5093891;28;20043;-61
2023/04/26 08:14:39;;;;;;;4.85;3.45;;;;;;;16.49;59.47;98365.28;5092803;28;20363;-63
2023/04/26 08:17:08;;;;;;;3.80;3.40;;;;;;;16.40;59.96;98366.50;5073979;28;20039;-61
2023/04/26 08:19:35;;;;;;;3.78;3.47;;;;;;;16.28;61.40;98373.44;5091639;28;20454;-59
2023/04/26 08:22:01;;;;;;;3.30;3.00;;;;;;;16.16;60.43;98370.47;5092895;28;20028;-59
2023/04/26 08:24:26;;;;;;;3.90;3.50;;;;;;;16.20;60.88;98377.97;5092524;28;20035;-61
2023/04/26 08:26:52;;;;;;;4.38;3.72;;;;;;;16.12;59.74;98353.81;5091811;28;20062;-60
2023/04/26 08:29:18;;;;;;;7.55;5.97;;;;;;;16.27;60.20;98380.69;5074627;28;20081;-57
2023/04/26 08:31:45;;;;;;;8.13;4.80;;;;;;;16.24;60.05;98388.38;5092060;28;20446;-59
2023/04/26 08:34:12;;;;;;;7.18;4.90;;;;;;;16.18;60.52;98393.53;5092731;28;20030;-57
2023/04/26 08:36:41;;;;;;;5.68;4.65;;;;;;;16.20;61.20;98382.53;5091557;28;20039;-61
2023/04/26 08:39:07;;;;;;;5.68;4.90;;;;;;;16.29;60.88;98384.06;5074518;28;20024;-58
2023/04/26 08:41:42;;;;;;;8.95;5.82;;;;;;;16.34;60.94;98383.47;5092903;28;20471;-59
2023/04/26 08:44:08;;;;;;;5.15;3.80;;;;;;;16.41;60.93;98388.91;5091892;28;20024;-60
2023/04/26 08:46:46;;;;;;;6.28;4.82;;;;;;;16.62;60.78;98385.28;5092215;28;20470;-61
2023/04/26 08:49:26;;;;;;;3.95;3.35;;;;;;;16.81;59.14;98377.50;5092664;28;20118;-62
2023/04/26 08:51:53;;;;;;;5.28;4.32;;;;;;;16.86;58.95;98388.53;5091399;28;20039;-58
2023/04/26 08:54:19;;;;;;;4.75;3.75;;;;;;;16.89;59.58;98363.84;5090212;28;20032;-62
2023/04/26 08:56:46;;;;;;;4.22;3.60;;;;;;;17.20;58.88;98392.28;5090163;28;20089;-57
2023/04/26 08:59:12;;;;;;;6.88;5.15;;;;;;;17.21;58.43;98385.84;5092623;28;20434;-59
2023/04/26 09:01:42;;;;;;;6.10;4.15;;;;;;;17.22;58.48;98391.03;5090389;28;20028;-61
2023/04/26 09:04:08;;;;;;;3.85;3.00;;;;;;;17.03;57.36;98398.03;5091602;28;20039;-63
2023/04/26 09:06:34;;;;;;;6.72;4.80;;;;;;;16.71;58.30;98389.53;5057342;28;20035;-64
2023/04/26 09:09:06;;;;;;;5.82;3.45;;;;;;;16.29;59.96;98372.41;5092259;28;20080;-66
2023/04/26 09:11:51;;;;;;;3.60;3.30;;;;;;;16.31;59.40;98378.44;5074484;28;20396;-63
2023/04/26 09:14:17;;;;;;;4.22;3.83;;;;;;;16.33;60.13;98409.66;5074817;28;20370;-62
2023/04/26 09:16:42;;;;;;;3.97;3.67;;;;;;;16.42;60.44;98418.44;5091473;28;20024;-62
2023/04/26 09:19:08;;;;;;;8.13;4.50;;;;;;;16.51;58.73;98400.19;5092194;28;20036;-63
2023/04/26 09:21:46;;;;;;;4.18;3.22;;;;;;;16.64;58.67;98413.81;5091945;28;20446;-62
2023/04/26 09:24:12;;;;;;;4.30;3.83;;;;;;;16.60;59.78;98415.22;5091448;28;20044;-63
2023/04/26 09:26:38;;;;;;;5.85;4.50;;;;;;;16.72;58.86;98404.72;5071918;28;20047;-64
2023/04/26 09:29:12;;;;;;;5.57;4.50;;;;;;;17.00;59.31;98411.94;5091986;28;20454;-63
2023/04/26 09:31:42;;;;;;;3.63;3.33;;;;;;;16.93;57.29;98413.75;5091280;28;20462;-63
2023/04/26 09:34:12;;;;;;;4.50;3.70;;;;;;;16.87;58.45;98406.44;5088188;28;20051;-64
2023/04/26 09:36:56;;;;;;;4.22;3.83;;;;;;;16.92;58.42;98412.09;5091134;28;20059;-64
2023/04/26 09:39:37;;;;;;;5.10;4.60;;;;;;;16.81;59.66;98423.44;5090866;28;20036;-61
2023/04/26 09:42:03;;;;;;;5.82;4.40;;;;;;;16.58;60.03;98417.31;5091675;28;20032;-63
2023/04/26 09:44:30;;;;;;;6.15;4.63;;;;;;;16.54;59.84;98423.28;5092060;28;20032;-62
2023/04/26 09:47:10;;;;;;;12.43;4.85;;;;;;;16.69;60.46;98429.44;5073275;28;20374;-62
2023/04/26 09:49:45;;;;;;;5.85;5.30;;;;;;;16.60;59.76;98427.91;5091687;28;20039;-61
2023/04/26 09:52:11;;;;;;;5.85;5.35;;;;;;;16.24;59.79;98405.41;5090369;28;21405;-63
2023/04/26 09:54:47;;;;;;;5.95;5.35;;;;;;;16.24;60.74;98435.09;5092087;28;20504;-62
2023/04/26 09:57:15;;;;;;;6.72;5.63;;;;;;;16.15;61.58;98439.00;5091229;28;20115;-62
2023/04/26 09:59:50;;;;;;;5.68;5.05;;;;;;;16.20;61.69;98431.97;5091777;28;20065;-61
2023/04/26 10:02:21;;;;;;;8.35;5.82;;;;;;;16.31;61.53;98438.72;5091861;28;20056;-61
2023/04/26 10:04:52;;;;;;;9.05;5.82;;;;;;;16.40;60.81;98439.41;5092174;28;20093;-63
2023/04/26 10:07:20;;;;;;;6.10;5.43;;;;;;;16.47;60.14;98448.41;5091169;28;20020;-61
2023/04/26 10:09:45;;;;;;;5.97;4.88;;;;;;;16.58;58.90;98440.78;5091603;28;20032;-62
2023/04/26 10:12:14;;;;;;;8.40;5.22;;;;;;;16.69;58.84;98448.34;5091293;28;20035;-64
2023/04/26 10:14:41;;;;;;;10.75;6.07;;;;;;;16.78;59.16;98438.22;5088631;28;20036;-65
2023/04/26 10:17:06;;;;;;;8.65;5.80;;;;;;;16.86;59.18;98445.31;5090719;28;20028;-62
2023/04/26 10:19:36;;;;;;;7.22;5.60;;;;;;;16.98;58.91;98453.69;5091276;28;20089;-63
2023/04/26 10:22:09;;;;;;;8.82;6.20;;;;;;;17.13;58.41;98450.91;5091597;28;20032;-63
2023/04/26 10:24:35;;;;;;;11.18;6.30;;;;;;;17.11;57.77;98453.81;5074106;28;20040;-60
2023/04/26 10:27:03;;;;;;;6.40;5.60;;;;;;;17.10;58.23;98454.00;5091744;28;20036;-64
2023/04/26 10:29:53;;;;;;;8.95;6.15;;;;;;;17.26;58.96;98450.97;5073869;28;20028;-63
2023/04/26 10:32:19;;;;;;;7.03;5.85;;;;;;;17.14;58.11;98458.81;5091280;28;20036;-63
2023/04/26 10:35:16;;;;;;;10.20;6.00;;;;;;;17.30;58.10;98462.22;5091748;28;20413;-63
2023/04/26 10:38:02;;;;;;;9.27;6.03;;;;;;;17.42;58.29;98462.50;5091422;28;20036;-63
2023/04/26 10:40:38;;;;;;;9.52;6.00;;;;;;;17.27;57.34;98466.16;5074289;28;20382;-62
2023/04/26 10:43:18;;;;;;;7.03;5.60;;;;;;;17.12;57.95;98474.41;5091733;28;20101;-63
2023/04/26 10:45:48;;;;;;;7.28;5.55;;;;;;;16.84;58.36;98467.16;5091445;28;20910;-63
2023/04/26 10:48:16;;;;;;;7.57;5.82;;;;;;;16.56;59.21;98480.66;5090632;28;20024;-63
2023/04/26 10:51:00;;;;;;;8.95;5.45;;;;;;;16.53;60.39;98478.34;5093583;28;20028;-62
2023/04/26 10:53:32;;;;;;;9.68;5.78;;;;;;;16.40;60.25;98474.53;5095612;28;20527;-63
2023/04/26 10:55:57;;;;;;;9.73;5.90;;;;;;;16.45;59.82;98482.88;5077305;28;20039;-63
2023/04/26 10:58:34;;;;;;;6.43;5.30;;;;;;;16.68;59.48;98480.97;5095788;28;20051;-64
2023/04/26 11:01:15;;;;;;;9.00;4.90;;;;;;;16.73;59.41;98473.94;5095090;28;20354;-61
2023/04/26 11:03:41;;;;;;;7.40;4.50;;;;;;;16.77;58.25;98472.50;5094535;28;20156;-62
2023/04/26 11:06:08;;;;;;;5.97;4.53;;;;;;;16.86;57.77;98473.19;5094793;28;20051;-63
2023/04/26 11:08:35;;;;;;;6.35;4.90;;;;;;;16.92;58.28;98476.97;5094427;28;20077;-63
2023/04/26 11:11:07;;;;;;;7.18;4.43;;;;;;;17.05;58.84;98476.25;5094973;28;20028;-62
2023/04/26 11:13:42;;;;;;;4.78;3.72;;;;;;;17.40;56.71;98484.31;5094453;28;20178;-63
2023/04/26 11:16:13;;;;;;;5.70;2.90;;;;;;;17.56;54.95;98483.13;5094898;28;20036;-62
2023/04/26 11:18:44;;;;;;;3.90;2.88;;;;;;;17.87;54.38;98483.66;5076848;28;20563;-60
2023/04/26 11:21:11;;;;;;;3.67;3.20;;;;;;;17.99;54.05;98487.44;5095041;28;20470;-63
2023/04/26 11:23:37;;;;;;;4.88;3.00;;;;;;;18.20;53.57;98486.44;5077037;28;20469;-66
2023/04/26 11:26:07;;;;;;;6.55;2.80;;;;;;;18.43;52.37;98485.22;5094373;28;20118;-63
2023/04/26 11:28:37;;;;;;;4.68;2.90;;;;;;;18.63;52.28;98490.63;5093691;28;20036;-62
2023/04/26 11:31:05;;;;;;;4.25;3.40;;;;;;;18.79;51.42;98499.38;5094482;28;20358;-63